Time;durP1;ratioP1;P1;durP2;ratioP2;P2;SDS_P1;SDS_P2;PMS_P1;PMS_P2;Temp;Humidity;BMP_temperature;BMP_pressure;BME280_temperature;BME280_humidity;BME280_pressure;Samples;Min_cycle;Max_cycle;Signal;HPM_P1;HPM_P2
2022/12/25 00:01:11;;;;;;;22.80;8.77;;;7.20;99.90;;;;;;5046920;28;20207;-72
2022/12/25 00:03:37;;;;;;;23.37;8.90;;;7.10;99.90;;;;;;5045017;28;20207;-72
2022/12/25 00:06:04;;;;;;;21.40;9.03;;;7.10;99.90;;;;;;5046378;28;20176;-72
2022/12/25 00:08:29;;;;;;;26.23;8.43;;;7.10;99.90;;;;;;5050574;28;20208;-72
2022/12/25 00:11:05;;;;;;;22.43;8.80;;;7.10;99.90;;;;;;5042462;28;20700;-72
2022/12/25 00:13:31;;;;;;;21.07;9.13;;;7.00;99.90;;;;;;5048275;28;20441;-73
2022/12/25 00:15:56;;;;;;;18.87;8.83;;;7.00;99.90;;;;;;5046190;28;20563;-72
2022/12/25 00:18:23;;;;;;;25.30;9.43;;;7.00;99.90;;;;;;5047181;28;20274;-71
2022/12/25 00:20:59;;;;;;;25.07;9.23;;;7.00;99.90;;;;;;5048339;28;20613;-73
2022/12/25 00:23:26;;;;;;;18.47;8.83;;;6.90;99.90;;;;;;5058963;28;20278;-72
2022/12/25 00:25:52;;;;;;;24.60;8.53;;;7.00;99.90;;;;;;5045153;28;20721;-72
2022/12/25 00:28:18;;;;;;;23.30;9.53;;;7.00;99.90;;;;;;5048546;28;20294;-73
2022/12/25 00:30:44;;;;;;;29.50;10.30;;;6.90;99.90;;;;;;5065488;28;20215;-72
2022/12/25 00:33:09;;;;;;;28.13;9.57;;;6.90;99.90;;;;;;5044241;28;20183;-72
2022/12/25 00:35:35;;;;;;;23.83;9.57;;;6.90;99.90;;;;;;5050770;28;20335;-72
2022/12/25 00:38:01;;;;;;;24.87;8.73;;;6.90;99.90;;;;;;5043274;28;20231;-72
2022/12/25 00:40:26;;;;;;;21.97;10.17;;;6.80;99.90;;;;;;5046384;28;20578;-72
2022/12/25 00:42:52;;;;;;;17.13;9.20;;;6.80;99.90;;;;;;5046416;28;20208;-73
2022/12/25 00:45:17;;;;;;;26.60;9.57;;;6.80;99.90;;;;;;5044126;28;20909;-72
2022/12/25 00:47:43;;;;;;;25.80;9.60;;;6.80;99.90;;;;;;5048563;28;20172;-72
2022/12/25 00:50:09;;;;;;;26.47;9.40;;;6.80;99.90;;;;;;5042083;28;20588;-73
2022/12/25 00:52:35;;;;;;;21.40;9.93;;;6.80;99.90;;;;;;5045677;28;20279;-73
2022/12/25 00:55:01;;;;;;;23.57;10.37;;;6.70;99.90;;;;;;5048126;28;20369;-72
2022/12/25 00:57:26;;;;;;;19.40;9.33;;;6.70;99.90;;;;;;5043678;28;20173;-72
2022/12/25 00:59:52;;;;;;;27.83;9.50;;;6.70;99.90;;;;;;5065016;28;20241;-73
2022/12/25 01:02:23;;;;;;;23.20;9.33;;;6.70;99.90;;;;;;5050225;28;20226;-73
2022/12/25 01:04:51;;;;;;;25.13;9.67;;;6.70;99.90;;;;;;5062183;28;20693;-73
2022/12/25 01:07:17;;;;;;;28.17;10.20;;;6.70;99.90;;;;;;5045577;28;20226;-73
2022/12/25 01:12:28;;;;;;;25.00;10.43;;;6.70;99.90;;;;;;5044150;28;20203;-72
2022/12/25 01:14:54;;;;;;;32.80;10.23;;;6.60;99.90;;;;;;5047955;28;20267;-71
2022/12/25 01:17:20;;;;;;;24.60;10.13;;;6.60;99.90;;;;;;5039789;28;20659;-73
2022/12/25 01:19:45;;;;;;;30.27;10.53;;;6.60;99.90;;;;;;5043520;28;20233;-73
2022/12/25 01:22:11;;;;;;;24.77;10.07;;;6.60;99.90;;;;;;5046109;28;20306;-72
2022/12/25 01:24:36;;;;;;;31.70;10.33;;;6.60;99.90;;;;;;5046544;28;20231;-73
2022/12/25 01:27:02;;;;;;;27.27;10.47;;;6.60;99.90;;;;;;5045093;28;20190;-70
2022/12/25 01:29:28;;;;;;;23.30;10.60;;;6.50;99.90;;;;;;5048500;28;20268;-73
2022/12/25 01:31:53;;;;;;;28.30;10.50;;;6.50;99.90;;;;;;5048184;28;20671;-73
2022/12/25 01:34:19;;;;;;;26.00;10.40;;;6.50;99.90;;;;;;5045607;28;20228;-72
2022/12/25 01:36:45;;;;;;;26.87;11.07;;;6.50;99.90;;;;;;5045600;28;20215;-73
2022/12/25 01:39:10;;;;;;;26.37;9.63;;;6.50;99.90;;;;;;5041225;28;20272;-73
2022/12/25 01:41:36;;;;;;;25.93;11.27;;;6.40;99.90;;;;;;5047792;28;20176;-73
2022/12/25 01:44:36;;;;;;;27.10;9.60;;;6.40;99.90;;;;;;5044541;28;20258;-71
2022/12/25 01:47:03;;;;;;;27.90;10.07;;;6.40;99.90;;;;;;5044651;28;20203;-71
2022/12/25 01:49:32;;;;;;;24.70;9.60;;;6.50;99.90;;;;;;5048199;28;20219;-73
2022/12/25 01:52:11;;;;;;;29.37;10.73;;;6.40;99.90;;;;;;5042773;28;20618;-72
2022/12/25 01:54:43;;;;;;;21.23;9.97;;;6.40;99.90;;;;;;5044395;28;20207;-73
2022/12/25 01:57:17;;;;;;;23.60;11.47;;;6.40;99.90;;;;;;5049138;28;20654;-72
2022/12/25 01:59:42;;;;;;;26.33;10.40;;;6.40;99.90;;;;;;5040709;28;20230;-72
2022/12/25 02:02:08;;;;;;;23.83;10.67;;;6.40;99.90;;;;;;5046734;28;20208;-72
2022/12/25 02:04:46;;;;;;;21.30;9.13;;;6.30;99.90;;;;;;5042909;28;20219;-72
2022/12/25 02:07:14;;;;;;;25.97;10.17;;;6.30;99.90;;;;;;5037900;28;20216;-73
2022/12/25 02:09:40;;;;;;;24.80;9.83;;;6.30;99.90;;;;;;5049265;28;20224;-72
2022/12/25 02:12:08;;;;;;;19.63;9.47;;;6.30;99.90;;;;;;5045553;28;20233;-72
2022/12/25 02:14:36;;;;;;;28.23;10.10;;;6.30;99.90;;;;;;5050566;28;20238;-72
2022/12/25 02:17:14;;;;;;;27.27;10.40;;;6.30;99.90;;;;;;5051266;28;20748;-71
2022/12/25 02:19:53;;;;;;;33.93;10.60;;;6.30;99.90;;;;;;5047301;28;20214;-72
2022/12/25 02:22:34;;;;;;;21.57;10.43;;;6.20;99.90;;;;;;5052041;28;20212;-73
2022/12/25 02:25:39;;;;;;;33.40;10.53;;;6.20;99.90;;;;;;5046082;28;20219;-70
2022/12/25 02:28:20;;;;;;;26.17;9.77;;;6.20;99.90;;;;;;5050845;28;20243;-72
2022/12/25 02:31:06;;;;;;;21.23;10.17;;;6.20;99.90;;;;;;5067996;28;20218;-73
2022/12/25 02:34:02;;;;;;;28.93;10.00;;;6.20;99.90;;;;;;5060002;28;20211;-72
2022/12/25 02:36:46;;;;;;;23.57;10.23;;;6.10;99.90;;;;;;5047261;28;20291;-71
2022/12/25 02:39:57;;;;;;;25.87;11.20;;;6.10;99.90;;;;;;5042163;28;20223;-72
2022/12/25 03:07:46;;;;;;;21.03;8.83;;;6.00;99.90;;;;;;5048563;28;20908;-72
2022/12/25 03:13:11;;;;;;;29.47;11.17;;;6.00;99.90;;;;;;5043318;28;20219;-73
2022/12/25 03:18:25;;;;;;;30.73;10.67;;;6.00;99.90;;;;;;5049384;28;20204;-72
2022/12/25 03:31:10;;;;;;;31.07;9.80;;;5.80;99.90;;;;;;5046533;28;20302;-71
2022/12/25 03:32:10;;;;;;;23.17;10.43;;;5.80;99.90;;;;;;5044935;28;20754;-72
2022/12/25 04:36:27;;;;;;;25.77;12.87;;;5.40;99.90;;;;;;5047156;28;20245;-73
2022/12/25 04:38:53;;;;;;;28.83;10.97;;;5.30;99.90;;;;;;5050567;28;20669;-69
2022/12/25 04:41:19;;;;;;;29.00;11.77;;;5.30;99.90;;;;;;5044272;28;20209;-71
2022/12/25 04:43:44;;;;;;;20.93;10.20;;;5.30;99.90;;;;;;5049365;28;20649;-73
2022/12/25 04:46:10;;;;;;;27.47;11.17;;;5.30;99.90;;;;;;5043188;28;20299;-72
2022/12/25 04:48:35;;;;;;;29.10;11.37;;;5.40;99.90;;;;;;5044071;28;20219;-73
2022/12/25 04:51:16;;;;;;;26.20;10.57;;;5.30;99.90;;;;;;5047385;28;20194;-73
2022/12/25 04:53:42;;;;;;;21.20;9.80;;;5.30;99.90;;;;;;5044968;28;20210;-73
2022/12/25 04:56:07;;;;;;;25.60;10.80;;;5.30;99.90;;;;;;5044962;28;20720;-73
2022/12/25 04:58:33;;;;;;;22.93;9.63;;;5.30;99.90;;;;;;5048823;28;20226;-72
2022/12/25 05:01:00;;;;;;;27.42;11.05;;;5.30;99.90;;;;;;5042797;28;20431;-72
2022/12/25 05:03:26;;;;;;;22.17;9.53;;;5.20;99.90;;;;;;5047230;28;20176;-72
2022/12/25 05:05:52;;;;;;;24.63;9.07;;;5.20;99.90;;;;;;5050324;28;20206;-72
2022/12/25 05:08:17;;;;;;;23.57;10.03;;;5.20;99.90;;;;;;5047348;28;20210;-72
2022/12/25 05:10:43;;;;;;;24.30;11.00;;;5.20;99.90;;;;;;5046836;28;20266;-73
2022/12/25 05:13:08;;;;;;;18.00;9.40;;;5.10;99.90;;;;;;5039685;28;20293;-73
2022/12/25 05:15:34;;;;;;;20.93;9.80;;;5.20;99.90;;;;;;5043945;28;20221;-73
2022/12/25 05:18:00;;;;;;;22.97;9.70;;;5.10;99.90;;;;;;5045293;28;20175;-72
2022/12/25 05:20:25;;;;;;;22.83;8.40;;;5.10;99.90;;;;;;5064400;28;20256;-73
2022/12/25 05:22:51;;;;;;;23.10;10.13;;;5.20;99.90;;;;;;5050048;28;20210;-73
2022/12/25 05:25:16;;;;;;;26.03;10.07;;;5.10;99.90;;;;;;5048061;28;20222;-73
2022/12/25 05:27:42;;;;;;;28.10;10.67;;;5.10;99.90;;;;;;5043745;28;20246;-73
2022/12/25 05:30:08;;;;;;;22.60;9.17;;;5.10;99.90;;;;;;5043935;28;20237;-73
2022/12/25 05:32:33;;;;;;;18.20;9.13;;;5.10;99.90;;;;;;5045424;28;20242;-73
2022/12/25 05:34:59;;;;;;;28.30;10.10;;;5.00;99.90;;;;;;5063912;28;20345;-72
2022/12/25 05:37:25;;;;;;;20.57;10.03;;;5.00;99.90;;;;;;5046061;28;20199;-73
2022/12/25 05:39:51;;;;;;;27.90;10.07;;;5.00;99.90;;;;;;5044671;28;20470;-73
2022/12/25 05:42:16;;;;;;;23.90;9.83;;;5.00;99.90;;;;;;5041695;28;20708;-73
2022/12/25 05:44:42;;;;;;;22.40;10.07;;;5.00;99.90;;;;;;5046894;28;20226;-73
2022/12/25 05:47:08;;;;;;;22.70;10.53;;;5.00;99.90;;;;;;5041787;28;20203;-71
2022/12/25 05:49:33;;;;;;;23.07;9.97;;;5.00;99.90;;;;;;5042357;28;20220;-73
2022/12/25 05:51:59;;;;;;;17.43;9.10;;;5.00;99.90;;;;;;5044679;28;20584;-73
2022/12/25 05:54:24;;;;;;;22.37;10.40;;;5.00;99.90;;;;;;5041558;28;20183;-73
2022/12/25 05:56:50;;;;;;;25.73;10.10;;;5.00;99.90;;;;;;5048725;28;20215;-73
2022/12/25 05:59:15;;;;;;;25.47;10.27;;;5.00;99.90;;;;;;5045550;28;20277;-71
2022/12/25 06:01:41;;;;;;;20.70;9.73;;;5.00;99.90;;;;;;5043593;28;20225;-73
2022/12/25 06:04:07;;;;;;;24.00;9.87;;;4.90;99.90;;;;;;5045048;28;20257;-73
2022/12/25 06:06:32;;;;;;;25.67;10.07;;;5.00;99.90;;;;;;5064847;28;20720;-72
2022/12/25 06:08:58;;;;;;;21.53;10.27;;;4.90;99.90;;;;;;5043715;28;20198;-71
2022/12/25 06:11:23;;;;;;;22.50;9.83;;;4.90;99.90;;;;;;5045704;28;20368;-73
2022/12/25 06:13:50;;;;;;;21.50;9.23;;;5.00;99.90;;;;;;5045961;28;21002;-73
2022/12/25 06:16:16;;;;;;;23.47;9.40;;;5.00;99.90;;;;;;5042307;28;20239;-72
2022/12/25 06:18:45;;;;;;;24.70;10.27;;;4.90;99.90;;;;;;5048261;28;20269;-72
2022/12/25 06:21:13;;;;;;;23.33;9.57;;;5.00;99.90;;;;;;5042462;28;20222;-73
2022/12/25 06:23:38;;;;;;;24.97;9.97;;;5.00;99.90;;;;;;5044344;28;20564;-73
2022/12/25 06:26:10;;;;;;;25.57;10.23;;;5.00;99.90;;;;;;5047447;28;20214;-73
2022/12/25 06:28:36;;;;;;;20.03;10.37;;;5.00;99.90;;;;;;5042511;28;20587;-73
2022/12/25 06:31:11;;;;;;;24.57;9.90;;;4.90;99.90;;;;;;5046495;28;20207;-72
2022/12/25 06:33:37;;;;;;;19.67;9.03;;;4.90;99.90;;;;;;5046396;28;20722;-73
2022/12/25 06:36:07;;;;;;;21.27;9.97;;;4.90;99.90;;;;;;5042953;28;20736;-72
2022/12/25 06:38:34;;;;;;;25.57;10.07;;;4.90;99.90;;;;;;5043368;28;20219;-73
2022/12/25 06:41:07;;;;;;;25.93;10.00;;;4.90;99.90;;;;;;5044197;28;20203;-72
2022/12/25 06:43:33;;;;;;;25.13;9.00;;;4.90;99.90;;;;;;5044280;28;20196;-73
2022/12/25 06:46:04;;;;;;;25.60;9.83;;;4.90;99.90;;;;;;5044358;28;20272;-72
2022/12/25 06:48:31;;;;;;;18.67;9.77;;;4.80;99.90;;;;;;5042828;28;20277;-73
2022/12/25 06:50:57;;;;;;;21.60;8.93;;;4.80;99.90;;;;;;5044077;28;20257;-73
2022/12/25 06:53:22;;;;;;;18.00;8.57;;;4.80;99.90;;;;;;5046683;28;20636;-73
2022/12/25 06:55:48;;;;;;;19.40;9.83;;;4.80;99.90;;;;;;5043384;28;20756;-73
2022/12/25 06:58:14;;;;;;;28.30;10.27;;;4.80;99.90;;;;;;5049351;28;20220;-73
2022/12/25 07:00:39;;;;;;;26.13;9.67;;;4.90;99.90;;;;;;5047877;28;20222;-73
2022/12/25 07:03:05;;;;;;;22.47;10.07;;;4.80;99.90;;;;;;5046618;28;20226;-72
2022/12/25 07:05:30;;;;;;;21.67;10.17;;;4.80;99.90;;;;;;5050162;28;20690;-72
2022/12/25 07:07:56;;;;;;;16.93;9.07;;;4.70;99.90;;;;;;5047666;28;20207;-72
2022/12/25 07:10:22;;;;;;;20.93;9.47;;;4.60;99.90;;;;;;5045208;28;20237;-72
2022/12/25 07:12:47;;;;;;;24.67;8.93;;;4.50;99.90;;;;;;5051225;28;20206;-71
2022/12/25 07:15:13;;;;;;;23.10;10.00;;;4.50;99.90;;;;;;5045898;28;20184;-72
2022/12/25 07:17:38;;;;;;;19.50;9.10;;;4.50;99.90;;;;;;5048867;28;20210;-72
2022/12/25 07:20:05;;;;;;;19.67;9.70;;;4.50;99.90;;;;;;5048153;28;20213;-72
2022/12/25 07:22:31;;;;;;;20.53;9.13;;;4.50;99.90;;;;;;5046609;28;20221;-72
2022/12/25 07:24:57;;;;;;;21.73;9.97;;;4.50;99.90;;;;;;5047776;28;20713;-72
2022/12/25 07:27:22;;;;;;;18.30;9.30;;;4.50;99.90;;;;;;5046561;28;20190;-72
2022/12/25 07:29:48;;;;;;;19.83;9.83;;;4.50;99.90;;;;;;5067157;28;20198;-72
2022/12/25 07:32:14;;;;;;;19.30;9.87;;;4.50;99.90;;;;;;5048511;28;20204;-72
2022/12/25 07:34:39;;;;;;;19.10;9.47;;;4.50;99.90;;;;;;5048150;28;20252;-72
2022/12/25 07:37:05;;;;;;;24.03;9.77;;;4.60;99.90;;;;;;5044410;28;20269;-72
2022/12/25 07:39:30;;;;;;;17.80;8.93;;;4.50;99.90;;;;;;5045408;28;20238;-70
2022/12/25 07:41:56;;;;;;;19.33;9.20;;;4.60;99.90;;;;;;5048113;28;20180;-72
2022/12/25 07:44:22;;;;;;;15.97;7.50;;;4.60;99.90;;;;;;5045527;28;20222;-72
2022/12/25 07:46:47;;;;;;;16.47;8.43;;;4.60;99.90;;;;;;5050323;28;20207;-72
2022/12/25 07:49:13;;;;;;;18.30;9.47;;;4.60;99.90;;;;;;5041241;28;20211;-72
2022/12/25 07:51:39;;;;;;;15.33;7.87;;;4.60;99.90;;;;;;5047520;28;20203;-72
2022/12/25 07:54:04;;;;;;;17.37;8.17;;;4.60;99.90;;;;;;5048833;28;20220;-71
2022/12/25 07:56:30;;;;;;;14.83;7.53;;;4.60;99.90;;;;;;5044073;28;20573;-72
2022/12/25 07:58:55;;;;;;;19.97;8.00;;;4.50;99.90;;;;;;5047223;28;20218;-72
2022/12/25 08:01:25;;;;;;;13.67;7.13;;;4.50;99.90;;;;;;5046640;28;20215;-72
2022/12/25 08:03:55;;;;;;;11.47;7.17;;;4.40;99.90;;;;;;5066812;28;20211;-72
2022/12/25 08:06:23;;;;;;;15.10;8.00;;;4.40;99.90;;;;;;5048123;28;20178;-72
2022/12/25 08:08:49;;;;;;;16.03;7.03;;;4.40;99.90;;;;;;5048018;28;20191;-72
2022/12/25 08:11:14;;;;;;;12.80;7.93;;;4.40;99.90;;;;;;5043526;28;20231;-73
2022/12/25 08:13:40;;;;;;;15.53;7.50;;;4.40;99.90;;;;;;5049716;28;20235;-73
2022/12/25 08:16:08;;;;;;;10.40;6.70;;;4.50;99.90;;;;;;5040932;28;20242;-72
2022/12/25 08:18:36;;;;;;;11.93;7.17;;;4.50;99.90;;;;;;5046907;28;20229;-71
2022/12/25 08:21:04;;;;;;;11.47;7.37;;;4.50;99.90;;;;;;5048040;28;20183;-71
2022/12/25 08:23:32;;;;;;;15.03;7.63;;;4.50;99.90;;;;;;5044307;28;20639;-73
2022/12/25 08:25:59;;;;;;;11.23;6.43;;;4.60;99.90;;;;;;5046921;28;20230;-72
2022/12/25 08:28:25;;;;;;;12.70;6.60;;;4.60;99.90;;;;;;5045886;28;20249;-72
2022/12/25 08:30:50;;;;;;;14.17;7.13;;;4.60;99.90;;;;;;5065788;28;20214;-72
2022/12/25 08:33:16;;;;;;;18.60;7.17;;;4.70;99.90;;;;;;5045638;28;20183;-73
2022/12/25 08:35:41;;;;;;;12.50;7.37;;;4.60;99.90;;;;;;5048269;28;20180;-72
2022/12/25 08:38:07;;;;;;;12.97;7.23;;;4.70;99.90;;;;;;5064390;28;20203;-73
2022/12/25 08:40:32;;;;;;;13.67;6.73;;;4.80;99.90;;;;;;5048857;28;20578;-73
2022/12/25 08:42:58;;;;;;;13.13;7.37;;;4.80;99.90;;;;;;5043816;28;20203;-73
2022/12/25 08:45:24;;;;;;;12.23;7.47;;;4.70;99.90;;;;;;5049495;28;20199;-72
2022/12/25 08:47:56;;;;;;;15.37;7.93;;;4.70;99.90;;;;;;5049913;28;20584;-72
2022/12/25 08:50:22;;;;;;;17.40;7.47;;;4.80;99.90;;;;;;5044691;28;20204;-73
2022/12/25 08:52:48;;;;;;;14.80;8.03;;;4.80;99.90;;;;;;5063623;28;20207;-72
2022/12/25 08:55:14;;;;;;;16.23;8.00;;;5.00;99.90;;;;;;5046552;28;20207;-73
2022/12/25 08:57:39;;;;;;;18.10;8.20;;;5.00;99.90;;;;;;5043283;28;20678;-74
2022/12/25 09:00:06;;;;;;;19.87;9.10;;;5.10;99.90;;;;;;5045071;28;20318;-72
2022/12/25 09:02:31;;;;;;;16.30;8.20;;;5.20;99.90;;;;;;5044153;28;20285;-72
2022/12/25 09:04:57;;;;;;;17.60;8.87;;;5.20;99.90;;;;;;5044428;28;20298;-72
2022/12/25 09:07:23;;;;;;;16.80;7.43;;;5.20;99.90;;;;;;5047905;28;20217;-72
2022/12/25 09:09:48;;;;;;;15.07;8.17;;;5.20;99.90;;;;;;5038686;28;20215;-73
2022/12/25 09:12:14;;;;;;;16.57;9.50;;;5.20;99.90;;;;;;5044027;28;20617;-71
2022/12/25 09:14:39;;;;;;;18.27;9.20;;;5.20;99.90;;;;;;5050189;28;20175;-72
2022/12/25 09:17:05;;;;;;;15.20;8.33;;;5.20;99.90;;;;;;5042949;28;20212;-72
2022/12/25 09:19:31;;;;;;;16.30;7.77;;;5.20;99.90;;;;;;5044729;28;20618;-73
2022/12/25 09:21:56;;;;;;;19.93;9.53;;;5.20;99.90;;;;;;5048125;28;20603;-72
2022/12/25 09:24:22;;;;;;;15.97;9.70;;;5.10;99.90;;;;;;5041329;28;20196;-72
2022/12/25 09:26:48;;;;;;;19.37;9.30;;;5.00;99.90;;;;;;5047422;28;20176;-73
2022/12/25 09:29:15;;;;;;;22.60;11.67;;;5.00;99.90;;;;;;5044247;28;20218;-73
2022/12/25 09:31:41;;;;;;;16.60;9.47;;;4.90;99.90;;;;;;5044287;28;20216;-73
2022/12/25 09:34:09;;;;;;;17.60;9.83;;;4.90;99.90;;;;;;5046358;28;20239;-73
2022/12/25 09:36:35;;;;;;;19.87;10.73;;;4.90;99.90;;;;;;5042777;28;20209;-73
2022/12/25 09:39:01;;;;;;;18.63;9.67;;;5.00;99.90;;;;;;5044079;28;20196;-73
2022/12/25 09:41:56;;;;;;;18.33;9.23;;;5.10;99.90;;;;;;5048306;28;20203;-73
2022/12/25 09:44:35;;;;;;;15.70;9.00;;;5.10;99.90;;;;;;5044205;28;20216;-73
2022/12/25 09:47:09;;;;;;;13.70;8.00;;;5.10;99.90;;;;;;5045430;28;20578;-73
2022/12/25 09:49:49;;;;;;;19.07;9.73;;;5.10;99.90;;;;;;5045003;28;20600;-74
2022/12/25 09:52:19;;;;;;;17.47;8.33;;;5.20;99.90;;;;;;5042140;28;20292;-73
2022/12/25 09:55:10;;;;;;;16.30;8.37;;;5.20;99.90;;;;;;5046328;28;20295;-73
2022/12/25 09:57:36;;;;;;;16.67;9.03;;;5.10;99.90;;;;;;5057394;28;20211;-73
2022/12/25 10:00:02;;;;;;;17.30;9.73;;;5.10;99.90;;;;;;5043909;28;20215;-73
2022/12/25 10:02:46;;;;;;;17.67;9.97;;;5.20;99.90;;;;;;5045552;28;20211;-73
2022/12/25 10:05:24;;;;;;;18.13;8.47;;;5.10;99.90;;;;;;5044498;28;20211;-73
2022/12/25 10:08:18;;;;;;;18.67;9.27;;;5.10;99.90;;;;;;5047346;28;20209;-73
2022/12/25 10:10:56;;;;;;;22.70;10.23;;;5.20;99.90;;;;;;5041415;28;20230;-73
2022/12/25 10:13:45;;;;;;;20.93;9.63;;;5.30;99.90;;;;;;5044221;28;20212;-72
2022/12/25 10:16:30;;;;;;;19.50;10.00;;;5.40;99.90;;;;;;5045660;28;20207;-73
2022/12/25 10:19:13;;;;;;;17.63;9.20;;;5.50;99.90;;;;;;5041865;28;20709;-73
2022/12/25 10:21:40;;;;;;;17.63;9.73;;;5.50;99.90;;;;;;5044435;28;20341;-73
2022/12/25 10:24:21;;;;;;;17.00;8.93;;;5.60;99.90;;;;;;5044110;28;20187;-73
2022/12/25 10:26:49;;;;;;;15.37;9.03;;;5.50;99.90;;;;;;5043770;28;20221;-73
2022/12/25 10:29:20;;;;;;;19.33;9.87;;;5.50;99.90;;;;;;5045249;28;20216;-73
2022/12/25 10:31:47;;;;;;;17.57;9.17;;;5.50;99.90;;;;;;5046410;28;20211;-73
2022/12/25 10:34:14;;;;;;;21.07;10.07;;;5.50;99.90;;;;;;5049923;28;20215;-73
2022/12/25 10:36:42;;;;;;;18.03;10.13;;;5.40;99.90;;;;;;5049400;28;20216;-73
2022/12/25 10:39:16;;;;;;;17.17;10.10;;;5.50;99.90;;;;;;5048330;28;20724;-73
2022/12/25 10:42:08;;;;;;;18.33;11.67;;;5.50;99.90;;;;;;5051214;28;20206;-71
2022/12/25 10:44:33;;;;;;;21.10;11.77;;;5.50;99.90;;;;;;5044671;28;20219;-73
2022/12/25 10:47:01;;;;;;;25.77;13.47;;;5.60;99.90;;;;;;5047707;28;20207;-73
2022/12/25 10:49:33;;;;;;;25.83;12.57;;;5.50;99.90;;;;;;5047495;28;20377;-73
2022/12/25 10:52:00;;;;;;;24.87;12.30;;;5.50;99.90;;;;;;5048855;28;20203;-73
2022/12/25 10:54:30;;;;;;;25.27;13.30;;;5.60;99.90;;;;;;5049619;28;20183;-72
2022/12/25 10:56:59;;;;;;;26.50;13.63;;;5.50;99.90;;;;;;5040186;28;20673;-73
2022/12/25 10:59:27;;;;;;;27.83;13.20;;;5.60;99.90;;;;;;5045036;28;20232;-73
2022/12/25 11:02:02;;;;;;;25.67;13.57;;;5.50;99.90;;;;;;5050727;28;20690;-72
2022/12/25 11:04:28;;;;;;;23.97;12.70;;;5.50;99.90;;;;;;5046246;28;20296;-74
2022/12/25 11:07:18;;;;;;;27.13;13.77;;;5.40;99.90;;;;;;5049437;28;20242;-73
2022/12/25 11:09:55;;;;;;;24.07;13.70;;;5.40;99.90;;;;;;5048885;28;20718;-74
2022/12/25 11:12:28;;;;;;;33.23;14.13;;;5.40;99.90;;;;;;5044419;28;20183;-73
2022/12/25 11:14:59;;;;;;;27.53;12.87;;;5.40;99.90;;;;;;5049656;28;20211;-72
2022/12/25 11:17:26;;;;;;;27.30;13.90;;;5.50;99.90;;;;;;5049001;28;20690;-74
2022/12/25 11:19:57;;;;;;;24.97;13.67;;;5.40;99.90;;;;;;5046532;28;20702;-74
2022/12/25 11:22:24;;;;;;;27.70;15.77;;;5.50;99.90;;;;;;5049806;28;20214;-74
2022/12/25 11:24:50;;;;;;;26.43;13.93;;;5.50;99.90;;;;;;5041449;28;20226;-74
2022/12/25 11:27:29;;;;;;;27.63;14.70;;;5.40;99.90;;;;;;5045904;28;20187;-74
2022/12/25 11:30:04;;;;;;;28.93;15.97;;;5.50;99.90;;;;;;5050070;28;20210;-73
2022/12/25 11:32:45;;;;;;;31.80;14.67;;;5.40;99.90;;;;;;5043276;28;20247;-73
2022/12/25 11:35:13;;;;;;;22.73;13.63;;;5.50;99.90;;;;;;5046870;28;20211;-74
2022/12/25 11:37:50;;;;;;;31.93;16.27;;;5.60;99.90;;;;;;5051824;28;20208;-73
2022/12/25 11:40:20;;;;;;;26.93;13.93;;;5.60;99.90;;;;;;5043706;28;20235;-73
2022/12/25 11:42:58;;;;;;;29.33;15.63;;;5.50;99.90;;;;;;5048708;28;20203;-73
2022/12/25 11:45:30;;;;;;;25.13;14.00;;;5.60;99.90;;;;;;5045628;28;20195;-74
2022/12/25 11:48:13;;;;;;;27.77;15.30;;;5.60;99.90;;;;;;5048403;28;20267;-73
2022/12/25 11:50:48;;;;;;;28.47;16.00;;;5.60;99.90;;;;;;5046090;28;20196;-74
2022/12/25 11:53:37;;;;;;;31.13;17.60;;;5.50;99.90;;;;;;5044070;28;20203;-74
2022/12/25 11:56:08;;;;;;;32.43;17.57;;;5.30;99.90;;;;;;5046743;28;20686;-72
2022/12/25 11:58:44;;;;;;;33.70;17.97;;;5.30;99.90;;;;;;5044945;28;20303;-74
2022/12/25 12:01:31;;;;;;;31.83;16.90;;;5.20;99.90;;;;;;5046288;28;20294;-73
2022/12/25 12:04:00;;;;;;;29.03;16.00;;;5.30;99.90;;;;;;5049764;28;20861;-74
2022/12/25 12:06:40;;;;;;;29.90;17.83;;;5.40;99.90;;;;;;5047695;28;20210;-74
2022/12/25 12:09:33;;;;;;;32.47;16.77;;;5.40;99.90;;;;;;5046538;28;20202;-72
2022/12/25 12:12:16;;;;;;;29.93;16.33;;;5.50;99.90;;;;;;5044637;28;20200;-73
2022/12/25 12:14:46;;;;;;;33.77;17.23;;;5.50;99.90;;;;;;5045044;28;20203;-73
2022/12/25 12:17:14;;;;;;;26.43;16.77;;;5.50;99.90;;;;;;5047575;28;20223;-74
2022/12/25 12:19:40;;;;;;;30.80;17.60;;;5.60;99.90;;;;;;5043892;28;20207;-74
2022/12/25 12:22:05;;;;;;;32.13;17.47;;;5.60;99.90;;;;;;5046548;28;20219;-74
2022/12/25 12:24:41;;;;;;;31.03;17.90;;;5.60;99.90;;;;;;5047160;28;20251;-74
2022/12/25 12:27:25;;;;;;;32.07;17.93;;;5.70;99.90;;;;;;5044286;28;20178;-73
2022/12/25 12:29:57;;;;;;;31.73;16.97;;;5.70;99.90;;;;;;5048506;28;20294;-74
2022/12/25 12:32:37;;;;;;;32.07;17.27;;;5.80;99.90;;;;;;5044316;28;20223;-73
2022/12/25 12:35:34;;;;;;;29.47;16.63;;;5.80;99.90;;;;;;5047271;28;20724;-71
2022/12/25 12:38:09;;;;;;;32.77;17.93;;;5.90;99.90;;;;;;5036386;28;20552;-74
2022/12/25 12:40:41;;;;;;;38.27;18.10;;;5.80;99.90;;;;;;5042911;28;20230;-74
2022/12/25 12:43:30;;;;;;;28.63;17.83;;;5.90;99.90;;;;;;5047748;28;20273;-73
2022/12/25 12:46:01;;;;;;;23.13;14.67;;;5.80;99.90;;;;;;5043207;28;20223;-74
2022/12/25 12:48:28;;;;;;;31.57;16.67;;;5.80;99.90;;;;;;5049606;28;20245;-73
2022/12/25 12:51:05;;;;;;;37.87;18.33;;;5.80;99.90;;;;;;5045974;28;20254;-72
2022/12/25 12:53:32;;;;;;;27.23;15.33;;;5.80;99.90;;;;;;5045837;28;20281;-74
2022/12/25 12:56:10;;;;;;;27.73;15.83;;;5.80;99.90;;;;;;5045859;28;20207;-74
2022/12/25 12:58:39;;;;;;;30.03;17.13;;;5.80;99.90;;;;;;5045894;28;20212;-74
2022/12/25 13:01:25;;;;;;;28.80;16.93;;;5.90;99.90;;;;;;5046587;28;20219;-73
2022/12/25 13:06:31;;;;;;;22.63;13.37;;;5.90;99.90;;;;;;5023695;28;20351;-73
2022/12/25 13:09:12;;;;;;;24.93;13.83;;;6.00;99.90;;;;;;5030962;28;20176;-73
2022/12/25 13:11:41;;;;;;;22.13;12.57;;;6.00;99.90;;;;;;5024911;28;20204;-70
2022/12/25 13:14:16;;;;;;;25.03;13.43;;;6.00;99.90;;;;;;5021689;28;20232;-73
2022/12/25 13:16:44;;;;;;;26.30;12.07;;;6.00;99.90;;;;;;5027797;28;20230;-72
2022/12/25 13:19:20;;;;;;;21.57;12.87;;;6.10;99.90;;;;;;5030156;28;20687;-69
2022/12/25 13:21:59;;;;;;;24.57;14.13;;;6.10;99.90;;;;;;5026519;28;20294;-73
2022/12/25 13:24:27;;;;;;;20.30;12.50;;;6.20;99.90;;;;;;5030058;28;20298;-70
2022/12/25 13:26:53;;;;;;;23.23;10.43;;;6.20;99.90;;;;;;5029147;28;20184;-71
2022/12/25 13:29:35;;;;;;;19.83;11.80;;;6.20;99.90;;;;;;5025172;28;20805;-71
2022/12/25 13:32:04;;;;;;;17.53;10.60;;;6.20;99.90;;;;;;5027879;28;20200;-71
2022/12/25 13:34:33;;;;;;;20.80;10.47;;;6.20;99.90;;;;;;5030252;28;20298;-72
2022/12/25 13:37:11;;;;;;;19.60;9.97;;;6.20;99.90;;;;;;5030009;28;20218;-71
2022/12/25 13:39:50;;;;;;;20.10;10.33;;;6.30;99.90;;;;;;5027471;28;20718;-71
2022/12/25 13:42:22;;;;;;;14.50;9.60;;;6.30;99.90;;;;;;5029973;28;20184;-71
2022/12/25 13:44:56;;;;;;;17.80;9.53;;;6.20;99.90;;;;;;5030509;28;20567;-71
2022/12/25 13:47:38;;;;;;;20.07;10.03;;;6.20;99.90;;;;;;5024424;28;20263;-72
2022/12/25 13:50:18;;;;;;;17.60;9.67;;;6.20;99.90;;;;;;5027090;28;20705;-70
2022/12/25 13:52:44;;;;;;;18.40;9.43;;;6.30;99.90;;;;;;5028134;28;20196;-71
2022/12/25 13:55:15;;;;;;;20.90;9.77;;;6.30;99.90;;;;;;5029481;28;20212;-72
2022/12/25 13:57:46;;;;;;;20.17;9.77;;;6.30;99.90;;;;;;5030031;28;20211;-70
2022/12/25 14:00:27;;;;;;;19.27;9.80;;;6.30;99.90;;;;;;5028743;28;20252;-71
2022/12/25 14:02:53;;;;;;;16.27;9.10;;;6.30;99.90;;;;;;5028337;28;20692;-70
2022/12/25 14:05:29;;;;;;;14.37;8.60;;;6.30;99.90;;;;;;5030568;28;20220;-68
2022/12/25 14:07:57;;;;;;;17.73;8.67;;;6.30;99.90;;;;;;5031230;28;20203;-71
2022/12/25 14:10:36;;;;;;;17.70;9.13;;;6.30;99.90;;;;;;5032103;28;20690;-71
2022/12/25 14:13:06;;;;;;;18.23;9.10;;;6.30;99.90;;;;;;5031558;28;20207;-72
2022/12/25 14:15:33;;;;;;;16.67;8.50;;;6.30;99.90;;;;;;5033785;28;20212;-71
2022/12/25 14:17:59;;;;;;;18.27;8.90;;;6.30;99.90;;;;;;5032803;28;20251;-71
2022/12/25 14:20:34;;;;;;;14.07;8.13;;;6.30;99.90;;;;;;5033093;28;20204;-72
2022/12/25 14:23:00;;;;;;;15.57;8.30;;;6.30;99.90;;;;;;5031526;28;20790;-72
2022/12/25 14:25:32;;;;;;;18.70;9.20;;;6.30;99.90;;;;;;5033478;28;20295;-71
2022/12/25 14:28:04;;;;;;;19.17;9.10;;;6.30;99.90;;;;;;5033502;28;20756;-71
2022/12/25 14:30:30;;;;;;;15.87;9.23;;;6.30;99.90;;;;;;5032923;28;20208;-72
2022/12/25 14:32:56;;;;;;;14.97;9.23;;;6.30;99.90;;;;;;5033878;28;20693;-72
2022/12/25 14:35:23;;;;;;;18.47;10.03;;;6.30;99.90;;;;;;5033547;28;20240;-72
2022/12/25 14:37:55;;;;;;;13.67;9.13;;;6.30;99.90;;;;;;5033284;28;20605;-72
2022/12/25 14:40:23;;;;;;;23.07;9.87;;;6.30;99.90;;;;;;5032576;28;20227;-71
2022/12/25 14:43:05;;;;;;;18.67;10.57;;;6.30;99.90;;;;;;5033495;28;20227;-72
2022/12/25 14:45:37;;;;;;;18.40;10.27;;;6.30;99.90;;;;;;5045419;28;20228;-72